createdAt,value
2023-03-30T00:01:14.864Z,95502.69
2023-03-30T00:03:45.445Z,95497.84
2023-03-30T00:06:15.356Z,95509.25
2023-03-30T00:08:41.983Z,95500.00
2023-03-30T00:11:15.755Z,95506.06
2023-03-30T00:13:43.257Z,95489.50
2023-03-30T00:16:12.788Z,95513.72
2023-03-30T00:18:39.919Z,95513.84
2023-03-30T00:21:11.223Z,95504.97
2023-03-30T00:23:39.279Z,95502.53
2023-03-30T00:26:07.601Z,95501.00
2023-03-30T00:28:34.800Z,95497.97
2023-03-30T00:31:02.314Z,95501.53
2023-03-30T00:33:43.894Z,95503.13
2023-03-30T00:36:12.497Z,95508.25
2023-03-30T00:38:39.444Z,95514.19
2023-03-30T00:41:07.229Z,95493.88
2023-03-30T00:43:34.083Z,95508.53
2023-03-30T00:46:01.315Z,95506.63
2023-03-30T00:48:32.324Z,95512.16
2023-03-30T00:51:07.552Z,95497.09
2023-03-30T00:53:37.586Z,95501.34
2023-03-30T00:56:07.631Z,95490.34
2023-03-30T00:58:36.020Z,95488.47
2023-03-30T01:01:06.914Z,95476.25
2023-03-30T01:03:43.647Z,95483.47
2023-03-30T01:06:12.100Z,95491.88
2023-03-30T01:08:41.086Z,95474.97
2023-03-30T01:11:08.256Z,95488.28
2023-03-30T01:13:38.923Z,95507.16
2023-03-30T01:16:31.877Z,95498.84
2023-03-30T01:19:26.522Z,95501.13
2023-03-30T01:21:59.059Z,95494.09
2023-03-30T01:25:03.342Z,95508.00
2023-03-30T01:27:32.907Z,95498.38
2023-03-30T01:30:37.613Z,95503.78
2023-03-30T01:33:18.848Z,95500.06
2023-03-30T01:36:10.299Z,95506.91
2023-03-30T01:38:39.764Z,95513.06
2023-03-30T01:41:38.330Z,95493.94
2023-03-30T01:44:22.057Z,95492.00
2023-03-30T01:46:55.560Z,95486.47
2023-03-30T01:49:42.943Z,95494.06
2023-03-30T01:52:22.514Z,95497.88
2023-03-30T01:54:56.856Z,95509.50
2023-03-30T01:58:06.393Z,95509.00
2023-03-30T02:00:36.437Z,95506.25
2023-03-30T02:03:11.632Z,95505.59
2023-03-30T02:05:40.071Z,95516.78
2023-03-30T02:08:11.616Z,95517.19
2023-03-30T02:10:39.492Z,95509.56
2023-03-30T02:13:07.648Z,95508.78
2023-03-30T02:15:45.966Z,95504.91
2023-03-30T02:18:12.665Z,95508.75
2023-03-30T02:20:39.825Z,95504.66
2023-03-30T02:23:07.576Z,95502.66
2023-03-30T02:25:38.616Z,95507.22
2023-03-30T02:28:07.638Z,95511.44
2023-03-30T02:30:35.997Z,95519.94
2023-03-30T02:33:03.836Z,95519.88
2023-03-30T02:35:58.568Z,95518.06
2023-03-30T02:38:49.860Z,95529.50
2023-03-30T02:41:59.411Z,95538.34
2023-03-30T02:44:50.312Z,95533.41
2023-03-30T02:47:29.165Z,95523.13
2023-03-30T02:50:25.786Z,95530.41
2023-03-30T02:53:10.446Z,95529.19
2023-03-30T02:56:03.862Z,95529.13
2023-03-30T02:58:33.111Z,95531.06
2023-03-30T03:01:34.744Z,95525.38
2023-03-30T03:04:03.361Z,95522.00
2023-03-30T03:06:32.298Z,95539.63
2023-03-30T03:08:59.681Z,95541.88
2023-03-30T03:11:27.175Z,95528.09
2023-03-30T03:13:53.906Z,95544.75
2023-03-30T03:16:20.615Z,95540.13
2023-03-30T03:18:47.933Z,95547.44
2023-03-30T03:21:14.611Z,95543.66
2023-03-30T03:23:41.340Z,95548.22
2023-03-30T03:26:09.326Z,95541.28
2023-03-30T03:28:36.480Z,95535.13
2023-03-30T03:31:03.587Z,95549.38
2023-03-30T03:33:32.011Z,95539.84
2023-03-30T03:36:00.555Z,95540.13
2023-03-30T03:38:28.432Z,95535.97
2023-03-30T03:40:57.445Z,95546.75
2023-03-30T03:43:24.165Z,95546.06
2023-03-30T03:45:52.089Z,95564.59
2023-03-30T03:48:21.434Z,95562.75
2023-03-30T03:50:56.645Z,95561.66
2023-03-30T03:53:25.944Z,95564.72
2023-03-30T03:55:52.623Z,95555.91
2023-03-30T03:58:19.338Z,95561.72
2023-03-30T04:00:46.388Z,95568.63
2023-03-30T04:03:13.759Z,95571.00
2023-03-30T04:05:41.816Z,95573.25
2023-03-30T04:08:12.806Z,95568.63
2023-03-30T04:10:40.956Z,95566.31
2023-03-30T04:13:07.723Z,95566.28
2023-03-30T04:15:34.352Z,95553.63
2023-03-30T04:18:01.795Z,95560.16
2023-03-30T04:20:30.109Z,95562.47
2023-03-30T04:22:57.290Z,95560.88
2023-03-30T04:25:29.100Z,95553.97
2023-03-30T04:27:57.312Z,95550.88
2023-03-30T04:30:24.956Z,95539.78
2023-03-30T04:33:02.951Z,95560.19
2023-03-30T04:35:33.908Z,95528.34
2023-03-30T04:38:02.285Z,95556.78
2023-03-30T04:40:29.596Z,95573.34
2023-03-30T04:43:02.282Z,95552.19
2023-03-30T04:45:30.361Z,95553.72
2023-03-30T04:47:57.164Z,95551.03
2023-03-30T04:50:23.965Z,95543.66
2023-03-30T04:52:50.708Z,95563.25
2023-03-30T04:55:17.322Z,95568.63
2023-03-30T04:57:43.969Z,95566.63
2023-03-30T05:00:12.300Z,95569.22
2023-03-30T05:02:39.250Z,95563.53
2023-03-30T05:05:06.152Z,95572.78
2023-03-30T05:07:32.813Z,95585.78
2023-03-30T05:09:59.554Z,95588.44
2023-03-30T05:12:26.226Z,95585.38
2023-03-30T05:14:52.979Z,95567.91
2023-03-30T05:17:19.749Z,95571.34
2023-03-30T05:19:46.838Z,95558.09
2023-03-30T05:22:14.474Z,95522.34
2023-03-30T05:24:41.413Z,95585.06
2023-03-30T05:27:08.124Z,95583.34
2023-03-30T05:29:34.733Z,95574.75
2023-03-30T05:32:01.497Z,95566.16
2023-03-30T05:34:28.403Z,95567.66
2023-03-30T05:36:55.498Z,95566.53
2023-03-30T05:39:23.363Z,95581.72
2023-03-30T05:41:50.109Z,95576.69
2023-03-30T05:44:16.931Z,95570.56
2023-03-30T05:46:43.562Z,95564.91
2023-03-30T05:49:10.483Z,95584.81
2023-03-30T05:51:37.320Z,95572.78
2023-03-30T05:54:04.187Z,95550.28
2023-03-30T05:56:31.071Z,95589.69
2023-03-30T05:58:57.884Z,95549.41
2023-03-30T06:01:26.317Z,95592.50
2023-03-30T06:03:53.337Z,95586.84
2023-03-30T06:06:20.342Z,95596.03
2023-03-30T06:08:47.206Z,95604.94
2023-03-30T06:11:14.156Z,95600.00
2023-03-30T06:13:41.162Z,95626.00
2023-03-30T06:16:08.668Z,95613.06
2023-03-30T06:18:35.274Z,95605.66
2023-03-30T06:21:03.207Z,95614.09
2023-03-30T06:23:30.011Z,95606.88
2023-03-30T06:25:57.784Z,95627.53
2023-03-30T06:28:24.453Z,95596.16
2023-03-30T06:30:51.577Z,95597.06
2023-03-30T06:33:19.236Z,95577.59
2023-03-30T06:35:47.682Z,95601.66
2023-03-30T06:38:15.389Z,95615.69
2023-03-30T06:40:42.494Z,95598.94
2023-03-30T06:43:16.422Z,95616.59
2023-03-30T06:45:44.187Z,95603.00
2023-03-30T06:48:10.985Z,95623.75
2023-03-30T06:50:38.853Z,95627.47
2023-03-30T06:53:05.935Z,95582.31
2023-03-30T06:55:33.202Z,95628.72
2023-03-30T06:57:59.918Z,95609.78
2023-03-30T07:00:26.966Z,95602.47
2023-03-30T07:02:53.805Z,95619.69
2023-03-30T07:05:24.834Z,95631.91
2023-03-30T07:07:52.656Z,95636.38
2023-03-30T07:10:19.320Z,95610.66
2023-03-30T07:12:46.008Z,95631.00
2023-03-30T07:15:13.848Z,95623.16
2023-03-30T07:17:40.655Z,95614.88
2023-03-30T07:20:09.331Z,95634.16
2023-03-30T07:22:36.464Z,95628.66
2023-03-30T07:25:04.557Z,95633.59
2023-03-30T07:27:31.357Z,95617.63
2023-03-30T07:30:07.251Z,95637.16
2023-03-30T07:32:40.993Z,95630.50
2023-03-30T07:35:09.198Z,95631.44
2023-03-30T07:37:37.802Z,95617.22
2023-03-30T07:40:07.532Z,95637.03
2023-03-30T07:42:34.387Z,95581.78
2023-03-30T07:45:01.020Z,95619.69
2023-03-30T07:47:27.965Z,95615.91
2023-03-30T07:49:54.652Z,95625.41
2023-03-30T07:52:21.369Z,95633.56
2023-03-30T07:54:48.177Z,95630.47
2023-03-30T07:57:15.047Z,95632.53
2023-03-30T07:59:41.798Z,95623.00
2023-03-30T08:02:12.294Z,95557.50
2023-03-30T08:04:39.190Z,95628.09
2023-03-30T08:07:06.102Z,95591.00
2023-03-30T08:09:33.505Z,95630.38
2023-03-30T08:12:00.812Z,95597.84
2023-03-30T08:14:27.756Z,95620.97
2023-03-30T08:16:54.812Z,95627.03
2023-03-30T08:19:23.904Z,95618.59
2023-03-30T08:21:51.112Z,95624.03
2023-03-30T08:24:17.797Z,95619.78
2023-03-30T08:26:44.410Z,95632.66
2023-03-30T08:29:11.526Z,95611.19
2023-03-30T08:31:38.422Z,95609.97
2023-03-30T08:34:06.505Z,95609.78
2023-03-30T08:36:33.570Z,95607.19
2023-03-30T08:39:00.386Z,95602.53
2023-03-30T08:41:29.754Z,95618.31
2023-03-30T08:44:02.623Z,95605.03
2023-03-30T08:46:30.521Z,95596.91
2023-03-30T08:49:01.202Z,95591.28
2023-03-30T08:51:30.630Z,95613.91
2023-03-30T08:54:03.635Z,95621.00
2023-03-30T08:56:41.838Z,95609.59
2023-03-30T08:59:36.747Z,95598.66
2023-03-30T09:02:18.885Z,95608.97
2023-03-30T09:05:04.763Z,95608.56
2023-03-30T09:07:36.435Z,95587.09
2023-03-30T09:10:04.456Z,95605.91
2023-03-30T09:12:50.943Z,95596.81
2023-03-30T09:15:22.848Z,95565.72
2023-03-30T09:18:12.650Z,95573.91
2023-03-30T09:20:44.211Z,95593.41
2023-03-30T09:23:15.651Z,95569.91
2023-03-30T09:25:46.531Z,95582.47
2023-03-30T09:28:27.293Z,95558.88
2023-03-30T09:31:00.606Z,95574.41
2023-03-30T09:34:09.265Z,95550.91
2023-03-30T09:36:44.512Z,95568.09
2023-03-30T09:39:22.280Z,95548.00
2023-03-30T09:42:06.643Z,95556.94
2023-03-30T09:44:41.876Z,95574.47
2023-03-30T09:47:36.868Z,95547.38
2023-03-30T09:50:27.022Z,95560.31
2023-03-30T09:52:56.658Z,95549.22
2023-03-30T09:55:30.130Z,95552.88
2023-03-30T09:58:12.126Z,95553.50
2023-03-30T10:00:39.479Z,95550.47
2023-03-30T10:03:08.399Z,95554.72
2023-03-30T10:05:37.598Z,95550.44
2023-03-30T10:08:07.351Z,95546.94
2023-03-30T10:10:41.153Z,95549.69
2023-03-30T10:13:14.271Z,95542.22
2023-03-30T10:15:46.493Z,95535.25
2023-03-30T10:18:19.593Z,95533.34
2023-03-30T10:20:55.261Z,95518.84
2023-03-30T10:23:24.705Z,95510.94
2023-03-30T10:25:52.203Z,95494.56
2023-03-30T10:28:30.874Z,95496.09
2023-03-30T10:31:01.206Z,95504.66
2023-03-30T10:33:30.061Z,95489.97
2023-03-30T10:36:00.998Z,95487.09
2023-03-30T10:38:33.202Z,95487.56
2023-03-30T10:41:12.986Z,95502.88
2023-03-30T10:43:42.058Z,95487.56
2023-03-30T10:46:20.139Z,95493.00
2023-03-30T10:49:09.196Z,95481.75
2023-03-30T10:52:05.554Z,95485.03
2023-03-30T10:54:53.734Z,95482.72
2023-03-30T10:57:26.106Z,95462.81
2023-03-30T11:00:03.745Z,95480.00
2023-03-30T11:02:56.960Z,95481.72
2023-03-30T11:05:33.130Z,95472.75
2023-03-30T11:08:06.349Z,95446.47
2023-03-30T11:10:36.006Z,95468.25
2023-03-30T11:13:06.559Z,95460.72
2023-03-30T11:15:58.891Z,95425.31
2023-03-30T11:18:41.492Z,95450.53
2023-03-30T11:21:16.504Z,95456.75
2023-03-30T11:23:55.298Z,95451.63
2023-03-30T11:26:50.899Z,95448.00
2023-03-30T11:29:41.911Z,95443.94
2023-03-30T11:32:36.487Z,95421.91
2023-03-30T11:35:15.202Z,95446.88
2023-03-30T11:37:49.930Z,95400.56
2023-03-30T11:40:29.765Z,95432.09
2023-03-30T11:42:56.498Z,95420.31
2023-03-30T11:45:28.983Z,95408.19
2023-03-30T11:48:22.985Z,95426.44
2023-03-30T11:51:00.758Z,95421.50
2023-03-30T11:53:46.250Z,95425.56
2023-03-30T11:56:46.871Z,95415.06
2023-03-30T11:59:32.881Z,95406.06
2023-03-30T12:02:08.824Z,95400.91
2023-03-30T12:04:45.495Z,95396.66
2023-03-30T12:07:27.548Z,95345.34
2023-03-30T12:09:58.116Z,95386.28
2023-03-30T12:12:34.617Z,95381.47
2023-03-30T12:15:27.285Z,95378.19
2023-03-30T12:18:14.552Z,95381.22
2023-03-30T12:20:47.639Z,95367.38
2023-03-30T12:23:21.519Z,95368.28
2023-03-30T12:26:22.070Z,95359.44
2023-03-30T12:29:47.982Z,95354.91
2023-03-30T12:31:59.305Z,95350.94
2023-03-30T12:34:28.574Z,95336.44
2023-03-30T12:37:00.750Z,95300.97
2023-03-30T12:39:50.329Z,95332.47
2023-03-30T12:42:28.181Z,95326.09
2023-03-30T12:45:07.104Z,95321.75
2023-03-30T12:47:36.842Z,95325.16
2023-03-30T12:50:31.207Z,95322.63
2023-03-30T12:53:24.095Z,95318.75
2023-03-30T12:56:12.524Z,95310.28
2023-03-30T12:58:59.329Z,95307.34
2023-03-30T13:02:03.578Z,95307.50
2023-03-30T13:04:37.834Z,95297.84
2023-03-30T13:07:06.125Z,95289.16
2023-03-30T13:09:55.954Z,95285.34
2023-03-30T13:12:41.980Z,95282.69
2023-03-30T13:15:39.580Z,95269.63
2023-03-30T13:18:09.410Z,95282.19
2023-03-30T13:20:48.654Z,95272.69
2023-03-30T13:23:15.486Z,95265.94
2023-03-30T13:25:51.383Z,95256.78
2023-03-30T13:28:56.002Z,95248.19
2023-03-30T13:31:37.678Z,95243.97
2023-03-30T13:34:11.436Z,95249.94
2023-03-30T13:36:51.479Z,95248.31
2023-03-30T13:39:42.531Z,95239.97
2023-03-30T13:42:18.245Z,95249.81
2023-03-30T13:44:57.250Z,95238.44
2023-03-30T13:47:36.401Z,95240.13
2023-03-30T13:50:16.838Z,95222.19
2023-03-30T13:52:46.374Z,95230.69
2023-03-30T13:55:39.506Z,95226.00
2023-03-30T13:58:14.651Z,95220.28
2023-03-30T14:00:50.454Z,95223.78
2023-03-30T14:03:34.967Z,95218.25
2023-03-30T14:06:20.979Z,95214.75
2023-03-30T14:08:50.681Z,95200.69
2023-03-30T14:11:23.561Z,95205.09
2023-03-30T14:13:52.465Z,95197.28
2023-03-30T14:16:25.704Z,95218.81
2023-03-30T14:19:13.880Z,95204.94
2023-03-30T14:21:45.143Z,95207.91
2023-03-30T14:24:36.849Z,95208.13
2023-03-30T14:27:15.518Z,95199.56
2023-03-30T14:29:46.630Z,95215.78
2023-03-30T14:32:16.053Z,95203.44
2023-03-30T14:34:50.567Z,95199.13
2023-03-30T14:37:21.000Z,95169.91
2023-03-30T14:39:54.559Z,95197.97
2023-03-30T14:42:22.509Z,95190.41
2023-03-30T14:44:52.988Z,95185.94
2023-03-30T14:47:23.008Z,95184.97
2023-03-30T14:49:53.324Z,95168.91
2023-03-30T14:52:41.526Z,95154.00
2023-03-30T14:55:19.043Z,95137.63
2023-03-30T14:57:46.825Z,95155.78
2023-03-30T15:00:19.789Z,95158.88
2023-03-30T15:03:01.453Z,95158.84
2023-03-30T15:05:37.167Z,95169.25
2023-03-30T15:08:04.779Z,95168.81
2023-03-30T15:10:45.966Z,95165.19
2023-03-30T15:13:29.042Z,95150.34
2023-03-30T15:15:59.717Z,95141.19
2023-03-30T15:18:29.177Z,95155.16
2023-03-30T15:20:56.680Z,95160.47
2023-03-30T15:23:26.220Z,95151.66
2023-03-30T15:26:01.539Z,95148.72
2023-03-30T15:28:32.853Z,95155.22
2023-03-30T15:30:59.963Z,95151.94
2023-03-30T15:33:36.823Z,95150.63
2023-03-30T15:36:07.814Z,95149.09
2023-03-30T15:38:42.896Z,95140.81
2023-03-30T15:41:15.621Z,95139.78
2023-03-30T15:44:09.168Z,95084.75
2023-03-30T15:46:37.078Z,95080.31
2023-03-30T15:49:05.435Z,95131.75
2023-03-30T15:51:38.793Z,95128.16
2023-03-30T15:54:12.990Z,95103.09
2023-03-30T15:56:48.162Z,95124.16
2023-03-30T15:59:18.714Z,95125.78
2023-03-30T16:01:53.417Z,95128.22
2023-03-30T16:04:22.571Z,95134.88
2023-03-30T16:06:55.497Z,95122.94
2023-03-30T16:09:22.911Z,95118.09
2023-03-30T16:11:52.602Z,95114.56
2023-03-30T16:14:20.678Z,95113.25
2023-03-30T16:16:48.738Z,95118.97
2023-03-30T16:19:18.504Z,95134.56
2023-03-30T16:21:45.765Z,95133.47
2023-03-30T16:24:12.654Z,95133.19
2023-03-30T16:26:39.335Z,95136.16
2023-03-30T16:29:16.119Z,95134.28
2023-03-30T16:31:42.835Z,95130.97
2023-03-30T16:34:09.584Z,95129.13
2023-03-30T16:36:36.278Z,95133.72
2023-03-30T16:39:05.655Z,95129.94
2023-03-30T16:41:32.451Z,95129.13
2023-03-30T16:43:59.150Z,95134.09
2023-03-30T16:46:26.020Z,95124.59
2023-03-30T16:48:52.679Z,95126.84
2023-03-30T16:51:20.160Z,95131.03
2023-03-30T16:53:47.704Z,95126.59
2023-03-30T16:56:19.131Z,95136.56
2023-03-30T16:58:46.787Z,95130.28
2023-03-30T17:01:18.772Z,95131.34
2023-03-30T17:03:45.792Z,95133.59
2023-03-30T17:06:14.276Z,95132.19
2023-03-30T17:08:42.943Z,95135.13
2023-03-30T17:11:10.952Z,95140.34
2023-03-30T17:13:37.702Z,95140.72
2023-03-30T17:16:04.642Z,95141.16
2023-03-30T17:18:31.960Z,95130.59
2023-03-30T17:21:02.232Z,95129.66
2023-03-30T17:23:32.248Z,95136.66
2023-03-30T17:26:01.155Z,95134.84
2023-03-30T17:28:33.405Z,95138.75
2023-03-30T17:31:01.294Z,95138.16
2023-03-30T17:33:28.731Z,95131.84
2023-03-30T17:36:05.338Z,95115.50
2023-03-30T17:38:33.097Z,95122.78
2023-03-30T17:41:00.007Z,95133.25
2023-03-30T17:43:26.836Z,95123.72
2023-03-30T17:45:53.658Z,95127.25
2023-03-30T17:48:22.103Z,95117.41
2023-03-30T17:50:50.602Z,95120.91
2023-03-30T17:53:19.862Z,95136.53
2023-03-30T17:55:48.717Z,95129.09
2023-03-30T17:58:26.318Z,95129.75
2023-03-30T18:00:53.880Z,95126.28
2023-03-30T18:03:22.734Z,95121.56
2023-03-30T18:05:50.867Z,95124.13
2023-03-30T18:08:21.506Z,95117.97
2023-03-30T18:10:51.797Z,95124.28
2023-03-30T18:13:22.560Z,95121.28
2023-03-30T18:15:54.990Z,95119.56
2023-03-30T18:18:25.132Z,95116.00
2023-03-30T18:20:54.581Z,95109.03
2023-03-30T18:23:21.449Z,95107.53
2023-03-30T18:25:49.234Z,95101.00
2023-03-30T18:28:24.636Z,95097.22
2023-03-30T18:30:57.574Z,95102.97
2023-03-30T18:33:25.307Z,95086.28
2023-03-30T18:35:53.573Z,95089.66
2023-03-30T18:38:22.097Z,95096.84
2023-03-30T18:40:53.802Z,95094.28
2023-03-30T18:43:20.691Z,95101.25
2023-03-30T18:45:49.666Z,95099.59
2023-03-30T18:48:21.718Z,95093.06
2023-03-30T18:50:53.488Z,95084.31
2023-03-30T18:53:22.646Z,95095.31
2023-03-30T18:55:51.788Z,95101.28
2023-03-30T18:58:23.324Z,95104.75
2023-03-30T19:00:52.013Z,95097.00
2023-03-30T19:03:20.211Z,95100.22
2023-03-30T19:05:47.863Z,95090.13
2023-03-30T19:08:20.231Z,95082.78
2023-03-30T19:10:50.004Z,95083.81
2023-03-30T19:13:19.057Z,95081.06
2023-03-30T19:15:47.138Z,95080.41
2023-03-30T19:18:15.304Z,95076.09
2023-03-30T19:20:42.579Z,95074.78
2023-03-30T19:23:15.420Z,95078.84
2023-03-30T19:25:43.566Z,95066.66
2023-03-30T19:28:12.061Z,95063.94
2023-03-30T19:30:39.822Z,95080.34
2023-03-30T19:33:10.121Z,95072.50
2023-03-30T19:35:39.254Z,95076.09
2023-03-30T19:38:06.254Z,95087.41
2023-03-30T19:40:33.391Z,95081.00
2023-03-30T19:43:00.132Z,95064.19
2023-03-30T19:45:27.473Z,95071.47
2023-03-30T19:47:54.493Z,95077.81
2023-03-30T19:50:26.950Z,95063.84
2023-03-30T19:52:55.661Z,95062.78
2023-03-30T19:55:22.761Z,95062.78
2023-03-30T19:57:50.034Z,95052.25
2023-03-30T20:00:18.557Z,95057.81
2023-03-30T20:02:50.931Z,95053.94
2023-03-30T20:05:19.785Z,95046.97
2023-03-30T20:07:47.477Z,95062.03
2023-03-30T20:10:19.143Z,95072.50
2023-03-30T20:12:46.974Z,95058.09
2023-03-30T20:15:14.474Z,95061.19
2023-03-30T20:17:42.252Z,95060.47
2023-03-30T20:20:12.923Z,95063.94
2023-03-30T20:22:44.789Z,95074.00
2023-03-30T20:25:14.322Z,95064.19
2023-03-30T20:27:41.734Z,95069.66
2023-03-30T20:30:10.299Z,95059.03
2023-03-30T20:32:37.442Z,95046.19
2023-03-30T20:35:05.135Z,95055.44
2023-03-30T20:37:31.945Z,95072.16
2023-03-30T20:40:06.512Z,95058.34
2023-03-30T20:42:33.228Z,95043.84
2023-03-30T20:45:01.349Z,95036.28
2023-03-30T20:47:30.111Z,95045.41
2023-03-30T20:49:59.256Z,95068.25
2023-03-30T20:52:27.174Z,95061.72
2023-03-30T20:54:54.399Z,95063.53
2023-03-30T20:57:22.002Z,95056.09
2023-03-30T20:59:49.805Z,95071.41
2023-03-30T21:02:19.136Z,95060.78
2023-03-30T21:04:46.408Z,95060.03
2023-03-30T21:07:13.200Z,95050.19
2023-03-30T21:09:40.599Z,95065.31
2023-03-30T21:12:08.691Z,95050.81
2023-03-30T21:14:35.607Z,95054.03
2023-03-30T21:17:02.410Z,95050.66
2023-03-30T21:19:29.074Z,95039.00
2023-03-30T21:21:55.842Z,95047.19
2023-03-30T21:24:22.569Z,95044.19
2023-03-30T21:26:49.307Z,95051.88
2023-03-30T21:29:16.047Z,95048.91
2023-03-30T21:31:42.858Z,95053.72
2023-03-30T21:34:10.751Z,95053.56
2023-03-30T21:36:38.078Z,95038.91
2023-03-30T21:39:05.118Z,95046.91
2023-03-30T21:41:31.968Z,95027.84
2023-03-30T21:43:58.617Z,95028.31
2023-03-30T21:46:28.872Z,95020.75
2023-03-30T21:48:55.619Z,95032.00
2023-03-30T21:51:28.164Z,95029.41
2023-03-30T21:53:55.893Z,95024.41
2023-03-30T21:56:26.018Z,95030.34
2023-03-30T21:58:53.807Z,95021.22
2023-03-30T22:01:24.042Z,95017.94
2023-03-30T22:03:51.794Z,95014.44
2023-03-30T22:06:19.608Z,95012.78
2023-03-30T22:08:46.603Z,95011.75
2023-03-30T22:11:19.185Z,95007.94
2023-03-30T22:13:48.474Z,94994.31
2023-03-30T22:16:22.398Z,94983.59
2023-03-30T22:18:49.992Z,95002.81
2023-03-30T22:21:21.779Z,94997.41
2023-03-30T22:23:48.360Z,94993.28
2023-03-30T22:26:15.576Z,94980.59
2023-03-30T22:28:42.838Z,94995.44
2023-03-30T22:31:11.658Z,94967.19
2023-03-30T22:33:38.356Z,94993.47
2023-03-30T22:36:07.516Z,94996.38
2023-03-30T22:38:34.403Z,94992.09
2023-03-30T22:41:07.923Z,94989.56
2023-03-30T22:43:35.918Z,94990.31
2023-03-30T22:46:03.576Z,94992.13
2023-03-30T22:48:30.384Z,94989.72
2023-03-30T22:51:02.190Z,94988.66
2023-03-30T22:53:32.683Z,94990.94
2023-03-30T22:56:00.032Z,94985.50
2023-03-30T22:58:27.201Z,94991.38
2023-03-30T23:01:01.068Z,94969.91
2023-03-30T23:03:28.319Z,94986.38
2023-03-30T23:05:56.059Z,94985.31
2023-03-30T23:08:24.012Z,94979.88
2023-03-30T23:10:53.909Z,94987.75
2023-03-30T23:13:20.487Z,94977.75
2023-03-30T23:15:48.574Z,94965.97
2023-03-30T23:18:15.874Z,94972.63
2023-03-30T23:20:46.750Z,94977.78
2023-03-30T23:23:14.665Z,94971.88
2023-03-30T23:25:50.167Z,94967.47
2023-03-30T23:28:17.909Z,94850.63
2023-03-30T23:30:45.043Z,94963.69
2023-03-30T23:33:12.141Z,94957.63
2023-03-30T23:35:38.992Z,94955.66
2023-03-30T23:38:05.657Z,94964.44
2023-03-30T23:40:32.279Z,94958.06
2023-03-30T23:42:58.852Z,94961.84
2023-03-30T23:45:25.492Z,94959.75
2023-03-30T23:47:52.225Z,94954.13
2023-03-30T23:50:18.865Z,94966.09
2023-03-30T23:52:46.711Z,94958.69
2023-03-30T23:55:13.347Z,94954.00
2023-03-30T23:57:40.164Z,94954.28
